This is the latest recevied weather packets stored in our database for station/object K1FFK-1. If no packets are shown the sender has not sent any weather packets the latest 10 day(s).
| Time | Temp. | Humidity | Pressure | Rain* | Wind** | Luminosity | Snow |
|---|---|---|---|---|---|---|---|
| 1777336893 | 10.56° C | 47% | 1027.5 hPa | 0 mm | - | - | - |
| 1777336294 | 10.56° C | 47% | 1027.3 hPa | 0 mm | - | - | - |
| 1777335695 | 10.56° C | 47% | 1027.2 hPa | 0 mm | - | - | - |
| 1777335094 | 10.56° C | 47% | 1027.2 hPa | 0 mm | - | - | - |
| 1777334493 | 11.11° C | 46% | 1027.3 hPa | 0 mm | - | - | - |
| 1777333896 | 11.11° C | 46% | 1027.2 hPa | 0 mm | - | - | - |
| 1777333294 | 11.67° C | 45% | 1027.1 hPa | 0 mm | - | - | - |
| 1777332694 | 11.67° C | 44% | 1027 hPa | 0 mm | - | - | - |
| 1777332094 | 12.22° C | 43% | 1026.9 hPa | 0 mm | - | - | - |
| 1777331494 | 12.22° C | 41% | 1026.9 hPa | 0 mm | - | - | - |
| 1777330895 | 13.33° C | 39% | 1027 hPa | 0 mm | - | - | - |
| 1777330294 | 13.33° C | 39% | 1027 hPa | 0 mm | - | - | - |
| 1777329693 | 13.89° C | 39% | 1027.1 hPa | 0 mm | - | - | - |
| 1777329094 | 13.89° C | 39% | 1027.2 hPa | 0 mm | - | - | - |
| 1777328493 | 14.44° C | 38% | 1027.2 hPa | 0 mm | - | - | - |
| 1777327894 | 13.89° C | 38% | 1027.2 hPa | 0 mm | - | - | - |
| 1777327294 | 13.33° C | 39% | 1027.3 hPa | 0 mm | - | - | - |
| 1777326694 | 13.33° C | 39% | 1027.4 hPa | 0 mm | - | - | - |
| 1777326094 | 13.33° C | 39% | 1027.4 hPa | 0 mm | - | - | - |
| 1777325493 | 13.89° C | 38% | 1027.5 hPa | 0 mm | - | - | - |
| 1777324893 | 13.89° C | 36% | 1027.5 hPa | 0 mm | - | - | - |
| 1777324294 | 13.89° C | 37% | 1027.3 hPa | 0 mm | - | - | - |
| 1777323694 | 13.89° C | 39% | 1027.4 hPa | 0 mm | - | - | - |
| 1777323094 | 14.44° C | 36% | 1027.5 hPa | 0 mm | - | - | - |
| 1777322494 | 14.44° C | 36% | 1027.5 hPa | 0 mm | - | - | - |
* Rain latest hour (hover to see other rain measurements)
** Current wind speed in m/s (hover to see current wind gust speed)